createdAt,value
2023-03-17T00:01:09.574Z,88.52
2023-03-17T00:03:41.818Z,88.54
2023-03-17T00:06:17.614Z,88.74
2023-03-17T00:08:46.227Z,89.99
2023-03-17T00:11:14.864Z,90.66
2023-03-17T00:13:41.704Z,91.06
2023-03-17T00:16:16.497Z,89.78
2023-03-17T00:18:43.622Z,89.87
2023-03-17T00:21:14.569Z,90.07
2023-03-17T00:23:43.403Z,90.60
2023-03-17T00:26:10.901Z,91.08
2023-03-17T00:28:37.290Z,91.22
2023-03-17T00:31:13.067Z,91.61
2023-03-17T00:33:39.697Z,92.04
2023-03-17T00:36:07.455Z,91.92
2023-03-17T00:38:33.751Z,92.15
2023-03-17T00:41:01.259Z,92.08
2023-03-17T00:43:29.743Z,90.99
2023-03-17T00:45:56.980Z,91.06
2023-03-17T00:48:24.078Z,91.39
2023-03-17T00:50:50.679Z,91.98
2023-03-17T00:53:19.402Z,92.57
2023-03-17T00:55:46.647Z,92.63
2023-03-17T00:58:18.287Z,92.22
2023-03-17T01:00:45.463Z,91.92
2023-03-17T01:03:13.013Z,91.88
2023-03-17T01:05:40.622Z,92.05
2023-03-17T01:08:07.718Z,90.96
2023-03-17T01:10:34.021Z,91.66
2023-03-17T01:13:00.667Z,91.68
2023-03-17T01:15:31.549Z,92.02
2023-03-17T01:18:02.625Z,92.26
2023-03-17T01:20:32.832Z,91.90
2023-03-17T01:23:00.403Z,91.22
2023-03-17T01:25:27.590Z,91.15
2023-03-17T01:27:59.656Z,91.02
2023-03-17T01:30:28.743Z,90.81
2023-03-17T01:32:56.978Z,90.77
2023-03-17T01:35:25.687Z,90.55
2023-03-17T01:37:53.243Z,90.46
2023-03-17T01:40:23.417Z,90.90
2023-03-17T01:43:13.358Z,91.30
2023-03-17T01:46:13.989Z,91.25
2023-03-17T01:49:05.604Z,91.79
2023-03-17T01:51:50.244Z,92.67
2023-03-17T01:54:34.565Z,93.64
2023-03-17T01:57:09.270Z,94.16
2023-03-17T01:59:42.166Z,94.31
2023-03-17T02:02:11.090Z,95.09
2023-03-17T02:04:39.037Z,95.18
2023-03-17T02:07:06.224Z,95.44
2023-03-17T02:09:33.992Z,96.25
2023-03-17T02:12:02.248Z,96.53
2023-03-17T02:14:29.175Z,97.13
2023-03-17T02:16:56.084Z,96.99
2023-03-17T02:19:22.529Z,97.31
2023-03-17T02:21:57.885Z,97.17
2023-03-17T02:24:37.569Z,96.05
2023-03-17T02:27:11.731Z,95.11
2023-03-17T02:29:38.268Z,94.87
2023-03-17T02:32:05.696Z,94.98
2023-03-17T02:34:32.712Z,95.27
2023-03-17T02:36:59.230Z,95.33
2023-03-17T02:39:25.970Z,95.53
2023-03-17T02:41:53.017Z,95.75
2023-03-17T02:44:19.375Z,94.91
2023-03-17T02:46:46.182Z,94.28
2023-03-17T02:49:13.684Z,94.74
2023-03-17T02:51:40.124Z,94.66
2023-03-17T02:54:06.426Z,94.72
2023-03-17T02:56:32.826Z,95.00
2023-03-17T02:58:59.135Z,94.99
2023-03-17T03:01:26.752Z,95.84
2023-03-17T03:03:53.210Z,96.84
2023-03-17T03:06:19.546Z,97.78
2023-03-17T03:08:45.978Z,98.42
2023-03-17T03:11:12.723Z,99.01
2023-03-17T03:13:39.061Z,99.35
2023-03-17T03:16:05.765Z,99.31
2023-03-17T03:18:32.786Z,99.16
2023-03-17T03:20:59.110Z,98.54
2023-03-17T03:23:25.397Z,98.49
2023-03-17T03:25:51.908Z,98.88
2023-03-17T03:28:18.377Z,99.45
2023-03-17T03:30:45.741Z,100.00
2023-03-17T03:33:13.986Z,100.00
2023-03-17T03:35:40.699Z,100.00
2023-03-17T03:38:07.567Z,100.00
2023-03-17T03:40:34.705Z,100.00
2023-03-17T03:43:07.540Z,100.00
2023-03-17T03:45:39.392Z,100.00
2023-03-17T03:48:05.984Z,100.00
2023-03-17T03:50:32.965Z,100.00
2023-03-17T03:52:59.288Z,100.00
2023-03-17T03:55:25.646Z,100.00
2023-03-17T03:57:52.206Z,100.00
2023-03-17T04:00:18.816Z,100.00
2023-03-17T04:02:46.483Z,100.00
2023-03-17T04:05:14.462Z,100.00
2023-03-17T04:07:41.664Z,100.00
2023-03-17T04:10:08.918Z,100.00
2023-03-17T04:12:35.280Z,100.00
2023-03-17T04:15:02.238Z,100.00
2023-03-17T04:17:28.620Z,100.00
2023-03-17T04:19:55.009Z,100.00
2023-03-17T04:22:21.380Z,100.00
2023-03-17T04:24:47.789Z,100.00
2023-03-17T04:27:15.456Z,100.00
2023-03-17T04:29:42.861Z,100.00
2023-03-17T04:32:11.588Z,100.00
2023-03-17T04:34:37.944Z,100.00
2023-03-17T04:37:04.315Z,100.00
2023-03-17T04:39:30.887Z,100.00
2023-03-17T04:41:57.465Z,100.00
2023-03-17T04:44:23.797Z,100.00
2023-03-17T04:46:50.222Z,100.00
2023-03-17T04:49:16.682Z,100.00
2023-03-17T04:51:42.975Z,100.00
2023-03-17T04:54:09.297Z,100.00
2023-03-17T04:56:36.177Z,100.00
2023-03-17T04:59:03.188Z,100.00
2023-03-17T05:01:29.565Z,100.00
2023-03-17T05:03:56.095Z,100.00
2023-03-17T05:06:22.659Z,100.00
2023-03-17T05:08:49.158Z,100.00
2023-03-17T05:11:16.190Z,100.00
2023-03-17T05:13:42.645Z,100.00
2023-03-17T05:16:09.809Z,100.00
2023-03-17T05:18:37.155Z,100.00
2023-03-17T05:21:05.247Z,100.00
2023-03-17T05:23:32.147Z,100.00
2023-03-17T05:25:59.202Z,100.00
2023-03-17T05:28:26.608Z,100.00
2023-03-17T05:30:53.480Z,100.00
2023-03-17T05:33:20.171Z,100.00
2023-03-17T05:35:47.138Z,100.00
2023-03-17T05:38:15.084Z,100.00
2023-03-17T05:40:42.616Z,100.00
2023-03-17T05:43:09.245Z,100.00
2023-03-17T05:45:35.639Z,100.00
2023-03-17T05:48:02.167Z,100.00
2023-03-17T05:50:28.541Z,100.00
2023-03-17T05:52:54.971Z,100.00
2023-03-17T05:55:21.782Z,100.00
2023-03-17T05:57:48.137Z,100.00
2023-03-17T06:00:16.122Z,100.00
2023-03-17T06:02:42.901Z,100.00
2023-03-17T06:05:09.486Z,100.00
2023-03-17T06:07:50.827Z,100.00
2023-03-17T06:10:18.422Z,100.00
2023-03-17T06:12:44.778Z,100.00
2023-03-17T06:15:11.099Z,100.00
2023-03-17T06:17:37.503Z,100.00
2023-03-17T06:20:05.341Z,100.00
2023-03-17T06:22:32.717Z,100.00
2023-03-17T06:24:59.296Z,100.00
2023-03-17T06:27:25.605Z,100.00
2023-03-17T06:29:51.899Z,100.00
2023-03-17T06:32:20.952Z,100.00
2023-03-17T06:34:48.103Z,100.00
2023-03-17T06:37:14.648Z,100.00
2023-03-17T06:39:42.170Z,100.00
2023-03-17T06:42:08.637Z,98.85
2023-03-17T06:44:36.192Z,94.29
2023-03-17T06:47:02.617Z,89.23
2023-03-17T06:49:29.108Z,88.20
2023-03-17T06:51:55.500Z,87.16
2023-03-17T06:54:24.499Z,86.68
2023-03-17T06:56:53.009Z,86.51
2023-03-17T06:59:22.578Z,82.18
2023-03-17T07:01:49.417Z,81.93
2023-03-17T07:04:16.251Z,78.18
2023-03-17T07:06:42.987Z,75.50
2023-03-17T07:09:10.028Z,74.42
2023-03-17T07:11:36.356Z,74.84
2023-03-17T07:14:02.777Z,75.38
2023-03-17T07:16:29.357Z,75.80
2023-03-17T07:18:55.752Z,76.09
2023-03-17T07:21:22.101Z,76.31
2023-03-17T07:23:48.490Z,75.05
2023-03-17T07:26:14.812Z,75.08
2023-03-17T07:28:41.835Z,75.50
2023-03-17T07:31:09.461Z,76.50
2023-03-17T07:33:35.951Z,76.38
2023-03-17T07:36:02.819Z,75.87
2023-03-17T07:38:29.156Z,74.81
2023-03-17T07:40:55.749Z,74.01
2023-03-17T07:43:22.476Z,73.73
2023-03-17T07:45:48.864Z,73.76
2023-03-17T07:48:15.251Z,72.50
2023-03-17T07:50:42.366Z,70.33
2023-03-17T07:53:08.960Z,70.38
2023-03-17T07:55:36.876Z,69.24
2023-03-17T07:58:03.412Z,68.82
2023-03-17T08:00:30.861Z,67.55
2023-03-17T08:03:09.400Z,67.17
2023-03-17T08:05:36.417Z,65.82
2023-03-17T08:08:02.789Z,65.56
2023-03-17T08:10:29.531Z,64.36
2023-03-17T08:12:56.312Z,64.10
2023-03-17T08:15:22.665Z,63.08
2023-03-17T08:17:49.025Z,63.81
2023-03-17T08:20:15.374Z,62.89
2023-03-17T08:22:41.716Z,61.54
2023-03-17T08:25:09.560Z,61.63
2023-03-17T08:27:36.199Z,61.35
2023-03-17T08:30:04.112Z,60.41
2023-03-17T08:32:30.738Z,59.43
2023-03-17T08:34:57.073Z,59.39
2023-03-17T08:37:24.568Z,58.89
2023-03-17T08:39:51.002Z,58.51
2023-03-17T08:42:17.427Z,57.60
2023-03-17T08:44:44.214Z,58.34
2023-03-17T08:47:10.787Z,58.30
2023-03-17T08:49:37.313Z,57.34
2023-03-17T08:52:04.093Z,56.75
2023-03-17T08:54:30.389Z,56.33
2023-03-17T08:56:57.809Z,54.05
2023-03-17T08:59:24.101Z,54.22
2023-03-17T09:01:50.570Z,53.04
2023-03-17T09:04:16.994Z,52.88
2023-03-17T09:07:01.335Z,53.28
2023-03-17T09:09:30.705Z,53.13
2023-03-17T09:11:57.102Z,51.61
2023-03-17T09:14:24.650Z,52.03
2023-03-17T09:16:51.035Z,50.59
2023-03-17T09:19:17.854Z,50.91
2023-03-17T09:21:44.847Z,50.35
2023-03-17T09:24:11.236Z,48.99
2023-03-17T09:26:37.659Z,48.78
2023-03-17T09:29:05.126Z,49.25
2023-03-17T09:31:32.787Z,48.81
2023-03-17T09:33:59.806Z,47.81
2023-03-17T09:36:26.211Z,48.21
2023-03-17T09:38:52.637Z,48.37
2023-03-17T09:41:48.598Z,46.92
2023-03-17T09:44:32.143Z,47.21
2023-03-17T09:46:58.421Z,46.24
2023-03-17T09:49:29.314Z,47.43
2023-03-17T09:51:56.035Z,47.07
2023-03-17T09:54:34.704Z,45.76
2023-03-17T09:57:09.456Z,46.64
2023-03-17T09:59:42.013Z,46.50
2023-03-17T10:02:23.839Z,45.86
2023-03-17T10:04:50.269Z,45.55
2023-03-17T10:07:22.470Z,45.79
2023-03-17T10:10:00.864Z,45.62
2023-03-17T10:12:41.594Z,46.25
2023-03-17T10:15:38.289Z,46.07
2023-03-17T10:18:13.887Z,45.23
2023-03-17T10:20:51.841Z,45.66
2023-03-17T10:23:23.661Z,44.57
2023-03-17T10:25:49.967Z,44.06
2023-03-17T10:28:28.208Z,44.08
2023-03-17T10:30:57.404Z,43.23
2023-03-17T10:33:23.873Z,43.16
2023-03-17T10:35:50.338Z,42.91
2023-03-17T10:38:24.264Z,42.77
2023-03-17T10:41:05.562Z,42.57
2023-03-17T10:43:45.682Z,41.78
2023-03-17T10:46:24.308Z,41.82
2023-03-17T10:48:53.178Z,42.94
2023-03-17T10:51:30.794Z,41.89
2023-03-17T10:54:01.569Z,41.80
2023-03-17T10:56:35.361Z,42.38
2023-03-17T10:59:07.854Z,41.85
2023-03-17T11:01:47.207Z,40.81
2023-03-17T11:04:35.470Z,41.37
2023-03-17T11:07:20.213Z,40.63
2023-03-17T11:09:52.435Z,42.15
2023-03-17T11:12:39.194Z,41.68
2023-03-17T11:15:10.716Z,42.17
2023-03-17T11:17:36.973Z,40.91
2023-03-17T11:20:12.740Z,40.93
2023-03-17T11:22:42.848Z,40.98
2023-03-17T11:25:15.097Z,39.25
2023-03-17T11:27:50.646Z,39.64
2023-03-17T11:30:29.176Z,39.53
2023-03-17T11:33:33.525Z,39.48
2023-03-17T11:36:09.542Z,39.11
2023-03-17T11:38:58.984Z,39.91
2023-03-17T11:41:53.817Z,39.87
2023-03-17T11:44:47.326Z,40.22
2023-03-17T11:47:22.912Z,40.97
2023-03-17T11:50:07.443Z,40.57
2023-03-17T11:52:58.030Z,41.05
2023-03-17T11:55:45.327Z,40.38
2023-03-17T11:58:23.107Z,40.70
2023-03-17T12:00:54.420Z,41.56
2023-03-17T12:03:31.118Z,41.39
2023-03-17T12:06:02.434Z,41.30
2023-03-17T12:08:40.614Z,40.35
2023-03-17T12:11:12.062Z,39.71
2023-03-17T12:14:06.585Z,39.56
2023-03-17T12:16:44.788Z,39.91
2023-03-17T12:19:19.791Z,40.53
2023-03-17T12:21:59.753Z,40.88
2023-03-17T12:25:05.151Z,41.82
2023-03-17T12:27:36.525Z,40.68
2023-03-17T12:30:15.511Z,40.94
2023-03-17T12:32:49.821Z,41.36
2023-03-17T12:35:35.078Z,41.46
2023-03-17T12:38:09.053Z,41.98
2023-03-17T12:40:44.222Z,40.95
2023-03-17T12:43:36.949Z,39.86
2023-03-17T12:46:22.384Z,38.73
2023-03-17T12:49:15.619Z,39.21
2023-03-17T12:52:04.873Z,38.87
2023-03-17T12:54:34.717Z,39.66
2023-03-17T12:57:24.107Z,38.62
2023-03-17T12:59:58.850Z,38.47
2023-03-17T13:02:36.424Z,39.00
2023-03-17T13:05:07.838Z,39.25
2023-03-17T13:07:39.062Z,39.64
2023-03-17T13:10:19.310Z,39.91
2023-03-17T13:12:48.584Z,39.58
2023-03-17T13:15:49.526Z,40.18
2023-03-17T13:18:16.135Z,39.77
2023-03-17T13:20:51.301Z,40.08
2023-03-17T13:23:21.976Z,39.70
2023-03-17T13:25:53.314Z,39.96
2023-03-17T13:28:25.998Z,41.10
2023-03-17T13:31:19.285Z,40.45
2023-03-17T13:33:53.129Z,39.49
2023-03-17T13:36:25.432Z,39.96
2023-03-17T13:39:30.942Z,39.93
2023-03-17T13:42:18.075Z,40.44
2023-03-17T13:45:16.494Z,40.20
2023-03-17T13:47:43.555Z,41.09
2023-03-17T13:50:29.958Z,40.40
2023-03-17T13:53:02.351Z,39.41
2023-03-17T13:55:35.084Z,39.62
2023-03-17T13:58:10.924Z,40.51
2023-03-17T14:00:40.149Z,40.17
2023-03-17T14:03:22.272Z,39.48
2023-03-17T14:05:52.660Z,39.10
2023-03-17T14:08:34.639Z,39.40
2023-03-17T14:11:16.066Z,39.49
2023-03-17T14:14:25.984Z,40.45
2023-03-17T14:17:10.620Z,40.13
2023-03-17T14:19:41.268Z,41.31
2023-03-17T14:22:25.196Z,41.72
2023-03-17T14:24:55.875Z,41.57
2023-03-17T14:27:24.247Z,41.95
2023-03-17T14:29:52.176Z,42.23
2023-03-17T14:32:21.220Z,41.69
2023-03-17T14:34:56.652Z,41.54
2023-03-17T14:37:23.471Z,42.11
2023-03-17T14:39:52.953Z,41.39
2023-03-17T14:42:45.766Z,41.96
2023-03-17T14:45:32.678Z,41.91
2023-03-17T14:48:01.744Z,42.30
2023-03-17T14:50:31.445Z,42.14
2023-03-17T14:52:59.790Z,41.72
2023-03-17T14:55:43.332Z,42.29
2023-03-17T14:58:20.850Z,42.22
2023-03-17T15:00:54.881Z,42.76
2023-03-17T15:03:25.154Z,42.39
2023-03-17T15:05:52.562Z,42.75
2023-03-17T15:08:34.470Z,42.35
2023-03-17T15:11:04.288Z,42.55
2023-03-17T15:13:34.790Z,42.50
2023-03-17T15:16:17.359Z,42.38
2023-03-17T15:18:44.696Z,43.00
2023-03-17T15:21:29.886Z,42.60
2023-03-17T15:23:56.244Z,42.63
2023-03-17T15:26:33.413Z,42.65
2023-03-17T15:29:00.369Z,42.24
2023-03-17T15:31:29.948Z,42.01
2023-03-17T15:33:57.279Z,42.04
2023-03-17T15:36:32.341Z,42.60
2023-03-17T15:39:00.399Z,42.68
2023-03-17T15:41:26.744Z,42.77
2023-03-17T15:43:53.510Z,42.04
2023-03-17T15:46:24.677Z,42.44
2023-03-17T15:48:51.583Z,43.63
2023-03-17T15:51:18.363Z,43.70
2023-03-17T15:53:44.814Z,44.62
2023-03-17T15:56:20.336Z,42.76
2023-03-17T15:58:49.042Z,44.97
2023-03-17T16:01:16.310Z,46.40
2023-03-17T16:03:45.263Z,47.70
2023-03-17T16:06:21.949Z,48.29
2023-03-17T16:08:49.288Z,48.50
2023-03-17T16:11:25.338Z,47.88
2023-03-17T16:13:51.629Z,47.72
2023-03-17T16:16:26.988Z,47.21
2023-03-17T16:18:53.330Z,48.03
2023-03-17T16:21:19.758Z,47.18
2023-03-17T16:23:47.689Z,47.91
2023-03-17T16:26:16.762Z,47.86
2023-03-17T16:28:45.510Z,48.38
2023-03-17T16:31:25.459Z,49.02
2023-03-17T16:33:53.416Z,49.58
2023-03-17T16:36:21.095Z,49.97
2023-03-17T16:38:47.774Z,50.03
2023-03-17T16:41:23.128Z,50.28
2023-03-17T16:43:53.522Z,50.66
2023-03-17T16:46:20.955Z,51.66
2023-03-17T16:48:49.464Z,51.67
2023-03-17T16:51:16.682Z,52.21
2023-03-17T16:53:43.405Z,52.26
2023-03-17T16:56:14.646Z,52.33
2023-03-17T16:58:41.615Z,52.53
2023-03-17T17:01:28.557Z,52.66
2023-03-17T17:03:55.667Z,52.98
2023-03-17T17:06:23.558Z,53.11
2023-03-17T17:08:51.299Z,53.71
2023-03-17T17:11:18.930Z,53.54
2023-03-17T17:13:48.273Z,54.25
2023-03-17T17:16:27.823Z,54.38
2023-03-17T17:18:54.483Z,55.44
2023-03-17T17:21:20.889Z,54.72
2023-03-17T17:23:47.311Z,55.53
2023-03-17T17:26:13.667Z,56.42
2023-03-17T17:28:40.312Z,56.53
2023-03-17T17:31:08.245Z,55.81
2023-03-17T17:33:36.232Z,57.01
2023-03-17T17:36:11.420Z,57.52
2023-03-17T17:38:38.091Z,58.25
2023-03-17T17:41:06.832Z,57.81
2023-03-17T17:43:33.357Z,57.69
2023-03-17T17:45:59.897Z,58.14
2023-03-17T17:48:27.536Z,58.61
2023-03-17T17:50:55.583Z,59.39
2023-03-17T17:53:22.045Z,59.78
2023-03-17T17:55:49.479Z,59.96
2023-03-17T17:58:22.071Z,60.16
2023-03-17T18:00:48.964Z,60.63
2023-03-17T18:03:15.452Z,60.69
2023-03-17T18:05:41.922Z,61.40
2023-03-17T18:08:13.367Z,62.40
2023-03-17T18:10:39.700Z,62.56
2023-03-17T18:13:06.015Z,62.63
2023-03-17T18:15:32.438Z,63.28
2023-03-17T18:17:58.796Z,63.58
2023-03-17T18:20:25.761Z,62.22
2023-03-17T18:22:52.257Z,62.42
2023-03-17T18:25:19.345Z,63.15
2023-03-17T18:27:47.038Z,63.02
2023-03-17T18:30:20.278Z,63.02
2023-03-17T18:32:49.453Z,63.98
2023-03-17T18:35:19.672Z,63.81
2023-03-17T18:37:46.395Z,63.95
2023-03-17T18:40:16.421Z,64.51
2023-03-17T18:42:45.175Z,64.87
2023-03-17T18:45:12.444Z,65.33
2023-03-17T18:47:40.075Z,65.77
2023-03-17T18:50:08.053Z,66.12
2023-03-17T18:52:36.636Z,66.37
2023-03-17T18:55:04.347Z,66.95
2023-03-17T18:57:31.148Z,66.46
2023-03-17T18:59:57.483Z,65.85
2023-03-17T19:02:23.941Z,66.21
2023-03-17T19:04:50.320Z,66.63
2023-03-17T19:07:17.837Z,66.59
2023-03-17T19:09:44.721Z,66.59
2023-03-17T19:12:11.081Z,67.66
2023-03-17T19:14:38.644Z,67.89
2023-03-17T19:17:06.152Z,68.45
2023-03-17T19:19:33.834Z,68.83
2023-03-17T19:22:00.768Z,68.83
2023-03-17T19:24:27.398Z,69.09
2023-03-17T19:26:53.685Z,69.54
2023-03-17T19:29:20.071Z,69.82
2023-03-17T19:31:48.483Z,69.94
2023-03-17T19:34:15.400Z,69.99
2023-03-17T19:36:46.262Z,69.88
2023-03-17T19:39:13.510Z,70.35
2023-03-17T19:41:40.050Z,70.03
2023-03-17T19:44:06.909Z,70.07
2023-03-17T19:46:35.103Z,70.55
2023-03-17T19:49:01.526Z,70.95
2023-03-17T19:51:27.987Z,71.26
2023-03-17T19:53:55.408Z,71.34
2023-03-17T19:56:22.990Z,71.45
2023-03-17T19:58:49.445Z,71.14
2023-03-17T20:01:17.103Z,71.56
2023-03-17T20:03:43.666Z,71.77
2023-03-17T20:06:11.836Z,71.34
2023-03-17T20:08:38.994Z,71.84
2023-03-17T20:11:06.176Z,71.36
2023-03-17T20:13:34.461Z,71.98
2023-03-17T20:16:01.662Z,72.18
2023-03-17T20:18:28.778Z,72.07
2023-03-17T20:20:57.380Z,72.53
2023-03-17T20:23:24.992Z,72.79
2023-03-17T20:25:53.131Z,71.77
2023-03-17T20:28:21.353Z,72.25
2023-03-17T20:30:49.228Z,72.56
2023-03-17T20:33:16.938Z,72.91
2023-03-17T20:35:46.470Z,73.38
2023-03-17T20:38:13.448Z,73.24
2023-03-17T20:40:40.063Z,73.27
2023-03-17T20:43:06.646Z,73.13
2023-03-17T20:45:33.163Z,72.51
2023-03-17T20:48:00.681Z,72.60
2023-03-17T20:50:27.058Z,73.07
2023-03-17T20:52:53.731Z,73.30
2023-03-17T20:55:20.152Z,73.98
2023-03-17T20:57:47.401Z,74.48
2023-03-17T21:00:21.057Z,75.19
2023-03-17T21:02:50.152Z,74.93
2023-03-17T21:05:23.210Z,75.10
2023-03-17T21:07:50.092Z,75.13
2023-03-17T21:10:17.342Z,75.20
2023-03-17T21:12:45.128Z,74.27
2023-03-17T21:15:12.937Z,74.17
2023-03-17T21:17:42.293Z,74.59
2023-03-17T21:20:11.565Z,74.58
2023-03-17T21:22:39.711Z,74.74
2023-03-17T21:25:08.447Z,75.04
2023-03-17T21:27:37.653Z,75.11
2023-03-17T21:30:08.021Z,74.47
2023-03-17T21:32:34.405Z,74.21
2023-03-17T21:35:00.894Z,74.23
2023-03-17T21:37:27.578Z,74.12
2023-03-17T21:39:53.968Z,73.68
2023-03-17T21:42:20.277Z,73.92
2023-03-17T21:44:48.181Z,74.56
2023-03-17T21:47:15.642Z,74.96
2023-03-17T21:49:41.988Z,75.26
2023-03-17T21:52:08.326Z,75.52
2023-03-17T21:54:35.022Z,74.86
2023-03-17T21:57:01.664Z,75.03
2023-03-17T21:59:30.828Z,74.76
2023-03-17T22:01:57.797Z,74.73
2023-03-17T22:04:24.106Z,74.61
2023-03-17T22:06:51.551Z,74.46
2023-03-17T22:09:19.250Z,74.42
2023-03-17T22:11:45.819Z,74.29
2023-03-17T22:14:13.205Z,75.18
2023-03-17T22:16:39.766Z,75.50
2023-03-17T22:19:06.113Z,75.57
2023-03-17T22:21:32.437Z,75.66
2023-03-17T22:23:58.829Z,75.44
2023-03-17T22:26:25.217Z,75.57
2023-03-17T22:28:51.585Z,76.14
2023-03-17T22:31:21.784Z,76.68
2023-03-17T22:33:49.938Z,76.92
2023-03-17T22:36:17.776Z,77.00
2023-03-17T22:38:47.591Z,77.86
2023-03-17T22:41:19.926Z,78.14
2023-03-17T22:43:48.572Z,78.43
2023-03-17T22:46:16.829Z,78.44
2023-03-17T22:48:44.113Z,78.92
2023-03-17T22:51:13.865Z,79.50
2023-03-17T22:53:41.116Z,80.29
2023-03-17T22:56:08.649Z,80.44
2023-03-17T22:58:35.775Z,80.56
2023-03-17T23:01:02.640Z,80.65
2023-03-17T23:03:29.709Z,80.47
2023-03-17T23:05:58.435Z,80.40
2023-03-17T23:08:26.044Z,80.39
2023-03-17T23:10:53.503Z,80.95
2023-03-17T23:13:20.803Z,81.22
2023-03-17T23:15:48.862Z,81.44
2023-03-17T23:18:15.433Z,81.35
2023-03-17T23:20:42.651Z,82.03
2023-03-17T23:23:10.650Z,82.66
2023-03-17T23:25:38.012Z,82.36
2023-03-17T23:28:05.594Z,82.26
2023-03-17T23:30:32.407Z,81.96
2023-03-17T23:32:59.122Z,81.77
2023-03-17T23:35:25.672Z,81.31
2023-03-17T23:37:52.250Z,81.32
2023-03-17T23:40:18.723Z,81.67
2023-03-17T23:42:47.927Z,82.12
2023-03-17T23:45:16.452Z,82.88
2023-03-17T23:47:43.411Z,83.28
2023-03-17T23:50:11.473Z,82.49
2023-03-17T23:52:38.248Z,83.50
2023-03-17T23:55:06.652Z,84.25
2023-03-17T23:57:34.627Z,85.19
